createdAt,value
2019-01-31T00:00:25.072Z,88.46
2019-01-31T00:03:03.172Z,88.06
2019-01-31T00:05:51.810Z,88.36
2019-01-31T00:08:45.424Z,88.77
2019-01-31T00:11:23.498Z,89.11
2019-01-31T00:14:03.754Z,88.75
2019-01-31T00:16:48.194Z,88.71
2019-01-31T00:19:23.342Z,88.27
2019-01-31T00:23:38.920Z,88.03
2019-01-31T00:26:25.138Z,87.91
2019-01-31T00:29:04.273Z,88.94
2019-01-31T00:31:50.943Z,88.49
2019-01-31T00:36:48.234Z,88.04
2019-01-31T00:39:38.739Z,88.55
2019-01-31T00:42:22.012Z,88.86
2019-01-31T00:47:10.593Z,88.23
2019-01-31T00:49:55.663Z,87.36
2019-01-31T00:54:44.045Z,87.90
2019-01-31T00:57:25.036Z,87.98
2019-01-31T01:00:06.235Z,88.18
2019-01-31T01:02:50.090Z,88.32
2019-01-31T01:06:41.963Z,88.97
2019-01-31T01:09:17.283Z,88.54
2019-01-31T01:12:04.397Z,87.51
2019-01-31T01:14:57.579Z,88.36
2019-01-31T01:17:46.870Z,87.67
2019-01-31T01:20:30.174Z,88.75
2019-01-31T01:23:09.537Z,88.19
2019-01-31T01:26:01.299Z,88.16
2019-01-31T01:28:55.750Z,88.17
2019-01-31T01:32:03.234Z,88.17
2019-01-31T01:34:43.708Z,87.48
2019-01-31T01:37:36.761Z,87.84
2019-01-31T01:40:28.690Z,88.74
2019-01-31T01:44:09.534Z,88.76
2019-01-31T01:46:46.070Z,87.80
2019-01-31T01:49:23.679Z,88.06
2019-01-31T01:52:07.971Z,87.70
2019-01-31T01:55:01.409Z,88.59
2019-01-31T01:58:43.344Z,88.10
2019-01-31T02:02:21.816Z,87.59
2019-01-31T02:07:10.734Z,87.42
2019-01-31T02:10:51.051Z,87.71
2019-01-31T02:15:37.641Z,88.10
2019-01-31T02:18:15.391Z,87.88
2019-01-31T02:20:59.716Z,88.67
2019-01-31T02:23:41.819Z,88.60
2019-01-31T02:27:21.057Z,88.20
2019-01-31T02:31:03.713Z,88.79
2019-01-31T02:33:45.087Z,87.59
2019-01-31T02:36:35.873Z,87.34
2019-01-31T02:39:49.888Z,87.56
2019-01-31T02:42:31.657Z,87.28
2019-01-31T02:47:15.564Z,87.23
2019-01-31T02:49:56.500Z,87.62
2019-01-31T02:53:07.290Z,86.64
2019-01-31T02:55:49.009Z,87.69
2019-01-31T02:58:27.167Z,87.72
2019-01-31T03:01:09.625Z,87.14
2019-01-31T03:03:54.492Z,87.33
2019-01-31T03:06:35.335Z,88.15
2019-01-31T03:09:17.466Z,88.11
2019-01-31T03:11:58.284Z,87.82
2019-01-31T03:14:40.977Z,88.69
2019-01-31T03:18:22.854Z,88.19
2019-01-31T03:22:02.227Z,88.14
2019-01-31T03:24:51.075Z,88.09
2019-01-31T03:27:35.744Z,88.30
2019-01-31T03:31:22.491Z,87.37
2019-01-31T03:34:01.581Z,87.82
2019-01-31T03:36:47.101Z,87.82
2019-01-31T03:39:30.312Z,87.29
2019-01-31T03:43:37.909Z,88.36
2019-01-31T03:46:19.709Z,87.21
2019-01-31T03:48:59.546Z,87.14
2019-01-31T03:51:44.546Z,87.55
2019-01-31T03:54:31.224Z,88.15
2019-01-31T03:57:13.197Z,87.83
2019-01-31T03:59:51.516Z,87.68
2019-01-31T04:02:31.531Z,87.85
2019-01-31T04:05:11.352Z,87.88
2019-01-31T04:07:40.121Z,87.50
2019-01-31T04:10:18.596Z,86.80
2019-01-31T04:12:37.851Z,87.76
2019-01-31T04:15:07.923Z,88.48
2019-01-31T04:17:36.793Z,87.75
2019-01-31T04:20:06.179Z,87.72
2019-01-31T04:22:35.002Z,88.46
2019-01-31T04:25:04.105Z,88.53
2019-01-31T04:27:32.891Z,88.55
2019-01-31T04:30:01.708Z,87.67
2019-01-31T04:32:30.735Z,88.14
2019-01-31T04:34:59.544Z,87.32
2019-01-31T04:37:28.442Z,87.35
2019-01-31T04:39:57.282Z,87.66
2019-01-31T04:42:26.062Z,87.51
2019-01-31T04:44:54.861Z,88.15
2019-01-31T04:47:23.771Z,87.60
2019-01-31T04:49:52.572Z,87.27
2019-01-31T04:52:21.360Z,87.91
2019-01-31T04:54:50.149Z,87.91
2019-01-31T04:57:19.190Z,88.30
2019-01-31T04:59:47.932Z,88.17
2019-01-31T05:02:16.759Z,88.00
2019-01-31T05:04:45.560Z,88.25
2019-01-31T05:07:14.363Z,88.17
2019-01-31T05:09:43.175Z,87.69
2019-01-31T05:12:11.961Z,88.21
2019-01-31T05:14:40.870Z,87.68
2019-01-31T05:17:09.716Z,88.38
2019-01-31T05:19:38.612Z,87.88
2019-01-31T05:22:07.429Z,87.65
2019-01-31T05:24:36.193Z,87.76
2019-01-31T05:27:05.108Z,87.97
2019-01-31T05:29:33.949Z,89.00
2019-01-31T05:32:02.828Z,88.92
2019-01-31T05:34:31.725Z,89.01
2019-01-31T05:37:00.559Z,87.75
2019-01-31T05:39:29.479Z,88.78
2019-01-31T05:41:58.368Z,88.02
2019-01-31T05:44:27.124Z,88.58
2019-01-31T05:46:56.012Z,89.01
2019-01-31T05:49:24.888Z,89.18
2019-01-31T05:51:53.688Z,88.44
2019-01-31T05:54:22.477Z,88.60
2019-01-31T05:56:51.366Z,87.93
2019-01-31T05:59:20.172Z,88.77
2019-01-31T06:01:50.047Z,88.81
2019-01-31T06:04:23.222Z,88.56
2019-01-31T06:06:52.030Z,88.89
2019-01-31T06:09:20.879Z,89.01
2019-01-31T06:11:49.691Z,88.32
2019-01-31T06:14:18.601Z,88.43
2019-01-31T06:16:47.432Z,88.60
2019-01-31T06:19:16.267Z,88.15
2019-01-31T06:21:45.103Z,88.37
2019-01-31T06:24:13.968Z,88.59
2019-01-31T06:26:43.383Z,88.84
2019-01-31T06:29:12.234Z,88.09
2019-01-31T06:31:41.075Z,88.86
2019-01-31T06:34:10.010Z,87.70
2019-01-31T06:36:38.803Z,87.79
2019-01-31T06:39:08.822Z,88.00
2019-01-31T06:41:38.237Z,88.41
2019-01-31T06:44:07.110Z,88.31
2019-01-31T06:46:35.934Z,87.93
2019-01-31T06:49:04.755Z,88.13
2019-01-31T06:51:33.562Z,87.86
2019-01-31T06:54:02.346Z,87.51
2019-01-31T06:56:31.212Z,88.45
2019-01-31T06:59:00.152Z,88.58
2019-01-31T07:01:28.949Z,88.26
2019-01-31T07:03:57.739Z,88.75
2019-01-31T07:06:26.602Z,88.31
2019-01-31T07:08:55.452Z,88.45
2019-01-31T07:11:30.285Z,87.87
2019-01-31T07:13:53.117Z,88.34
2019-01-31T07:16:22.796Z,88.67
2019-01-31T07:18:51.579Z,88.33
2019-01-31T07:21:20.483Z,88.37
2019-01-31T07:23:49.326Z,88.50
2019-01-31T07:26:18.205Z,88.74
2019-01-31T07:28:47.060Z,88.20
2019-01-31T07:31:15.871Z,88.87
2019-01-31T07:33:44.663Z,88.97
2019-01-31T07:36:13.514Z,88.01
2019-01-31T07:38:42.316Z,88.32
2019-01-31T07:41:11.304Z,88.64
2019-01-31T07:43:39.949Z,88.06
2019-01-31T07:46:08.858Z,87.74
2019-01-31T07:48:37.687Z,87.50
2019-01-31T07:51:06.476Z,87.98
2019-01-31T07:53:35.382Z,87.94
2019-01-31T07:56:04.211Z,88.04
2019-01-31T07:58:33.022Z,88.62
2019-01-31T08:01:01.820Z,88.08
2019-01-31T08:03:30.652Z,88.64
2019-01-31T08:05:59.427Z,88.18
2019-01-31T08:08:28.302Z,87.58
2019-01-31T08:10:57.073Z,87.60
2019-01-31T08:13:25.860Z,87.36
2019-01-31T08:15:54.652Z,87.84
2019-01-31T08:18:23.435Z,88.04
2019-01-31T08:20:52.227Z,88.30
2019-01-31T08:23:21.098Z,87.02
2019-01-31T08:25:49.883Z,87.20
2019-01-31T08:28:18.713Z,87.77
2019-01-31T08:30:47.666Z,88.02
2019-01-31T08:33:16.478Z,87.77
2019-01-31T08:35:45.345Z,86.95
2019-01-31T08:38:14.211Z,86.65
2019-01-31T08:40:43.019Z,87.37
2019-01-31T08:43:11.803Z,87.85
2019-01-31T08:45:40.572Z,86.79
2019-01-31T08:48:09.368Z,87.68
2019-01-31T08:50:38.148Z,87.37
2019-01-31T08:53:07.056Z,86.86
2019-01-31T08:55:35.917Z,87.42
2019-01-31T08:58:04.703Z,86.39
2019-01-31T09:00:33.512Z,86.91
2019-01-31T09:03:02.391Z,86.42
2019-01-31T09:05:31.163Z,86.64
2019-01-31T09:08:00.011Z,86.21
2019-01-31T09:10:32.207Z,86.18
2019-01-31T09:13:03.050Z,85.81
2019-01-31T09:15:31.826Z,86.38
2019-01-31T09:18:00.631Z,86.35
2019-01-31T09:20:36.791Z,85.92
2019-01-31T09:23:13.334Z,85.70
2019-01-31T09:25:55.196Z,85.95
2019-01-31T09:28:36.733Z,86.56
2019-01-31T09:32:21.595Z,86.38
2019-01-31T09:34:58.304Z,85.55
2019-01-31T09:37:45.928Z,85.18
2019-01-31T09:40:22.955Z,84.76
2019-01-31T09:43:27.391Z,84.67
2019-01-31T09:46:06.041Z,84.71
2019-01-31T09:50:48.652Z,85.00
2019-01-31T09:55:32.440Z,84.88
2019-01-31T09:58:12.887Z,83.67
2019-01-31T10:00:51.907Z,83.74
2019-01-31T10:03:35.230Z,83.47
2019-01-31T10:06:27.324Z,83.41
2019-01-31T10:09:06.731Z,84.00
2019-01-31T10:11:47.539Z,83.50
2019-01-31T10:14:39.289Z,84.37
2019-01-31T10:17:52.315Z,84.57
2019-01-31T10:25:22.351Z,83.96
2019-01-31T10:28:02.467Z,84.50
2019-01-31T10:30:41.283Z,83.60
2019-01-31T10:33:27.995Z,83.19
2019-01-31T10:36:10.980Z,83.20
2019-01-31T10:38:57.355Z,83.50
2019-01-31T10:43:43.164Z,83.33
2019-01-31T10:46:25.915Z,82.73
2019-01-31T10:49:04.387Z,82.23
2019-01-31T10:51:49.063Z,82.31
2019-01-31T10:54:36.690Z,83.17
2019-01-31T10:57:26.324Z,83.66
2019-01-31T11:01:07.794Z,83.63
2019-01-31T11:03:49.033Z,84.00
2019-01-31T11:06:33.483Z,84.86
2019-01-31T11:11:21.699Z,83.80
2019-01-31T11:14:03.889Z,82.57
2019-01-31T11:16:49.999Z,82.87
2019-01-31T11:21:36.299Z,82.54
2019-01-31T11:24:16.091Z,83.63
2019-01-31T11:26:57.067Z,83.36
2019-01-31T11:29:36.993Z,83.93
2019-01-31T11:34:32.433Z,83.46
2019-01-31T11:37:00.264Z,83.18
2019-01-31T11:40:50.180Z,83.35
2019-01-31T11:43:39.837Z,83.69
2019-01-31T11:46:20.226Z,83.75
2019-01-31T11:48:59.156Z,85.18
2019-01-31T11:51:48.496Z,84.02
2019-01-31T11:55:13.223Z,83.42
2019-01-31T11:58:14.491Z,82.96
2019-01-31T12:00:43.279Z,83.34
2019-01-31T12:03:12.136Z,83.72
2019-01-31T12:05:40.919Z,83.63
2019-01-31T12:08:09.724Z,84.10
2019-01-31T12:10:38.655Z,83.67
2019-01-31T12:13:07.514Z,82.63
2019-01-31T12:15:36.327Z,83.03
2019-01-31T12:18:05.495Z,83.30
2019-01-31T12:20:34.307Z,83.70
2019-01-31T12:23:03.128Z,83.74
2019-01-31T12:25:31.963Z,82.75
2019-01-31T12:28:00.854Z,82.26
2019-01-31T12:30:29.706Z,81.72
2019-01-31T12:32:58.536Z,82.72
2019-01-31T12:35:27.325Z,82.52
2019-01-31T12:37:56.166Z,83.64
2019-01-31T12:40:25.048Z,83.64
2019-01-31T12:43:00.556Z,84.01
2019-01-31T12:45:29.338Z,84.33
2019-01-31T12:47:58.200Z,83.70
2019-01-31T12:50:28.130Z,82.58
2019-01-31T12:52:57.003Z,83.70
2019-01-31T12:55:25.782Z,83.66
2019-01-31T12:57:54.572Z,82.97
2019-01-31T13:00:25.451Z,83.90
2019-01-31T13:02:54.261Z,84.01
2019-01-31T13:05:23.048Z,82.25
2019-01-31T13:07:51.955Z,83.09
2019-01-31T13:10:20.727Z,83.71
2019-01-31T13:12:49.727Z,82.86
2019-01-31T13:15:18.888Z,82.97
2019-01-31T13:17:47.675Z,82.76
2019-01-31T13:20:19.283Z,82.50
2019-01-31T13:22:49.034Z,81.68
2019-01-31T13:25:17.843Z,81.50
2019-01-31T13:27:46.623Z,81.41
2019-01-31T13:30:17.147Z,81.14
2019-01-31T13:32:45.938Z,81.23
2019-01-31T13:35:14.850Z,81.00
2019-01-31T13:37:43.628Z,80.69
2019-01-31T13:40:16.178Z,81.13
2019-01-31T13:42:45.019Z,81.01
2019-01-31T13:45:15.078Z,80.84
2019-01-31T13:47:43.872Z,81.56
2019-01-31T13:50:13.778Z,81.40
2019-01-31T13:52:42.487Z,81.52
2019-01-31T13:55:18.572Z,81.77
2019-01-31T13:57:44.635Z,81.04
2019-01-31T14:00:14.160Z,81.42
2019-01-31T14:02:42.947Z,81.28
2019-01-31T14:05:12.431Z,81.27
2019-01-31T14:07:41.220Z,81.57
2019-01-31T14:10:11.669Z,81.23
2019-01-31T14:12:41.211Z,81.08
2019-01-31T14:15:10.651Z,80.76
2019-01-31T14:17:39.479Z,81.98
2019-01-31T14:20:10.807Z,82.14
2019-01-31T14:22:42.980Z,81.38
2019-01-31T14:25:08.488Z,81.23
2019-01-31T14:27:37.300Z,81.75
2019-01-31T14:30:10.618Z,81.55
2019-01-31T14:32:39.411Z,81.63
2019-01-31T14:35:09.183Z,81.73
2019-01-31T14:37:38.003Z,81.75
2019-01-31T14:40:10.244Z,82.10
2019-01-31T14:42:36.188Z,82.09
2019-01-31T14:45:05.503Z,81.63
2019-01-31T14:47:34.367Z,80.88
2019-01-31T14:50:03.164Z,81.50
2019-01-31T14:52:32.018Z,81.43
2019-01-31T14:55:01.475Z,80.92
2019-01-31T14:57:30.305Z,81.52
2019-01-31T14:59:59.170Z,81.88
2019-01-31T15:02:27.953Z,82.02
2019-01-31T15:04:56.735Z,81.23
2019-01-31T15:07:25.719Z,82.11
2019-01-31T15:09:54.597Z,82.10
2019-01-31T15:12:23.454Z,81.99
2019-01-31T15:14:52.310Z,82.56
2019-01-31T15:17:21.755Z,81.37
2019-01-31T15:19:50.539Z,81.31
2019-01-31T15:22:19.382Z,82.11
2019-01-31T15:24:48.231Z,82.85
2019-01-31T15:27:17.115Z,82.48
2019-01-31T15:29:45.881Z,82.44
2019-01-31T15:32:14.662Z,81.90
2019-01-31T15:34:43.455Z,82.72
2019-01-31T15:37:12.282Z,81.87
2019-01-31T15:39:41.071Z,82.64
2019-01-31T15:42:09.986Z,82.69
2019-01-31T15:44:43.380Z,83.26
2019-01-31T15:47:07.695Z,82.50
2019-01-31T15:49:36.483Z,82.74
2019-01-31T15:52:05.588Z,83.14
2019-01-31T15:54:34.420Z,83.00
2019-01-31T15:57:03.231Z,82.71
2019-01-31T15:59:32.204Z,83.21
2019-01-31T16:02:03.234Z,83.83
2019-01-31T16:04:32.093Z,83.19
2019-01-31T16:07:01.511Z,83.40
2019-01-31T16:09:30.287Z,84.09
2019-01-31T16:11:59.784Z,83.50
2019-01-31T16:14:27.961Z,83.47
2019-01-31T16:16:56.816Z,83.63
2019-01-31T16:19:25.644Z,83.09
2019-01-31T16:21:54.507Z,83.49
2019-01-31T16:24:23.476Z,83.53
2019-01-31T16:26:52.267Z,83.43
2019-01-31T16:29:21.048Z,84.27
2019-01-31T16:31:49.943Z,83.65
2019-01-31T16:34:18.800Z,83.33
2019-01-31T16:36:47.600Z,83.94
2019-01-31T16:39:16.375Z,84.17
2019-01-31T16:41:45.856Z,83.69
2019-01-31T16:44:14.683Z,83.71
2019-01-31T16:46:43.508Z,83.82
2019-01-31T16:49:13.040Z,84.44
2019-01-31T16:51:41.914Z,83.55
2019-01-31T16:54:10.854Z,83.78
2019-01-31T16:56:39.700Z,83.87
2019-01-31T16:59:09.059Z,84.51
2019-01-31T17:01:37.848Z,84.54
2019-01-31T17:04:06.687Z,84.23
2019-01-31T17:06:41.818Z,84.21
2019-01-31T17:09:10.655Z,83.88
2019-01-31T17:11:39.454Z,83.12
2019-01-31T17:14:08.248Z,83.92
2019-01-31T17:16:37.081Z,84.11
2019-01-31T17:19:06.400Z,84.43
2019-01-31T17:21:35.239Z,83.93
2019-01-31T17:24:04.124Z,84.17
2019-01-31T17:26:32.894Z,82.97
2019-01-31T17:29:01.679Z,83.06
2019-01-31T17:31:30.555Z,82.54
2019-01-31T17:33:59.343Z,83.48
2019-01-31T17:36:28.135Z,83.75
2019-01-31T17:38:56.915Z,83.17
2019-01-31T17:41:25.700Z,83.49
2019-01-31T17:43:54.492Z,83.70
2019-01-31T17:46:23.290Z,82.50
2019-01-31T17:48:52.214Z,83.85
2019-01-31T17:51:20.979Z,83.41
2019-01-31T17:53:49.779Z,83.35
2019-01-31T17:56:18.607Z,83.08
2019-01-31T17:58:47.411Z,83.26
2019-01-31T18:01:16.216Z,83.24
2019-01-31T18:03:45.033Z,83.57
2019-01-31T18:06:13.828Z,83.60
2019-01-31T18:08:42.644Z,83.21
2019-01-31T18:11:11.607Z,82.94
2019-01-31T18:13:40.418Z,83.57
2019-01-31T18:16:09.243Z,83.80
2019-01-31T18:18:38.108Z,83.78
2019-01-31T18:21:06.950Z,84.37
2019-01-31T18:23:35.755Z,83.19
2019-01-31T18:26:04.597Z,84.34
2019-01-31T18:28:33.843Z,83.48
2019-01-31T18:31:02.675Z,83.99
2019-01-31T18:33:31.479Z,84.21
2019-01-31T18:36:00.280Z,83.86
2019-01-31T18:38:29.071Z,84.33
2019-01-31T18:40:58.002Z,83.95
2019-01-31T18:43:27.556Z,84.52
2019-01-31T18:45:56.468Z,84.57
2019-01-31T18:48:25.333Z,84.32
2019-01-31T18:50:54.115Z,85.07
2019-01-31T18:53:22.988Z,84.47
2019-01-31T18:55:51.860Z,84.31
2019-01-31T18:58:20.639Z,84.26
2019-01-31T19:00:50.350Z,85.15
2019-01-31T19:03:19.135Z,85.14
2019-01-31T19:05:47.910Z,85.53
2019-01-31T19:08:16.757Z,85.60
2019-01-31T19:10:45.541Z,85.69
2019-01-31T19:13:14.326Z,85.46
2019-01-31T19:15:43.116Z,85.76
2019-01-31T19:18:11.937Z,86.27
2019-01-31T19:20:40.754Z,84.92
2019-01-31T19:23:09.575Z,86.53
2019-01-31T19:25:38.371Z,86.09
2019-01-31T19:28:07.655Z,86.44
2019-01-31T19:30:38.196Z,86.22
2019-01-31T19:33:07.804Z,86.73
2019-01-31T19:35:36.780Z,85.77
2019-01-31T19:38:06.566Z,86.93
2019-01-31T19:40:36.382Z,86.50
2019-01-31T19:43:05.663Z,87.02
2019-01-31T19:45:37.448Z,86.40
2019-01-31T19:48:07.058Z,86.52
2019-01-31T19:50:35.861Z,87.39
2019-01-31T19:53:04.986Z,87.85
2019-01-31T19:55:33.856Z,88.45
2019-01-31T19:58:02.657Z,87.58
2019-01-31T20:00:31.496Z,86.82
2019-01-31T20:03:00.428Z,87.69
2019-01-31T20:05:29.183Z,88.01
2019-01-31T20:07:57.973Z,87.63
2019-01-31T20:10:27.570Z,87.45
2019-01-31T20:12:56.630Z,87.95
2019-01-31T20:15:25.448Z,88.12
2019-01-31T20:17:54.235Z,88.62
2019-01-31T20:20:24.367Z,88.29
2019-01-31T20:22:54.002Z,88.27
2019-01-31T20:25:22.770Z,88.70
2019-01-31T20:27:51.560Z,88.40
2019-01-31T20:30:26.162Z,88.36
2019-01-31T20:32:55.019Z,88.72
2019-01-31T20:35:23.816Z,89.69
2019-01-31T20:37:52.643Z,90.01
2019-01-31T20:40:24.712Z,88.95
2019-01-31T20:42:53.481Z,89.14
2019-01-31T20:45:22.260Z,90.13
2019-01-31T20:47:51.046Z,90.19
2019-01-31T20:50:22.951Z,89.62
2019-01-31T20:52:51.738Z,89.40
2019-01-31T20:55:20.703Z,90.56
2019-01-31T20:57:49.476Z,89.93
2019-01-31T21:00:22.804Z,90.89
2019-01-31T21:02:51.665Z,90.62
2019-01-31T21:05:20.535Z,90.92
2019-01-31T21:07:49.438Z,91.00
2019-01-31T21:10:18.346Z,90.96
2019-01-31T21:12:47.122Z,89.81
2019-01-31T21:15:18.090Z,90.65
2019-01-31T21:17:46.863Z,90.46
2019-01-31T21:20:16.690Z,91.32
2019-01-31T21:22:45.465Z,90.70
2019-01-31T21:25:14.462Z,90.49
2019-01-31T21:27:43.248Z,90.87
2019-01-31T21:30:15.623Z,91.53
2019-01-31T21:32:44.470Z,91.17
2019-01-31T21:35:13.278Z,91.35
2019-01-31T21:37:42.087Z,91.25
2019-01-31T21:40:11.135Z,91.64
2019-01-31T21:42:39.975Z,92.03
2019-01-31T21:45:10.407Z,92.03
2019-01-31T21:47:39.235Z,92.22
2019-01-31T21:50:10.334Z,91.57
2019-01-31T21:52:39.129Z,91.69
2019-01-31T21:55:08.375Z,92.84
2019-01-31T21:57:37.180Z,92.49
2019-01-31T22:00:08.722Z,92.70
2019-01-31T22:02:37.492Z,93.17
2019-01-31T22:05:07.656Z,93.37
2019-01-31T22:07:36.438Z,92.67
2019-01-31T22:10:06.422Z,93.50
2019-01-31T22:12:35.245Z,93.93
2019-01-31T22:15:04.176Z,93.50
2019-01-31T22:17:32.940Z,93.62
2019-01-31T22:20:01.811Z,92.87
2019-01-31T22:22:30.663Z,93.99
2019-01-31T22:24:59.491Z,93.29
2019-01-31T22:27:28.286Z,94.13
2019-01-31T22:29:57.060Z,94.22
2019-01-31T22:32:25.925Z,93.96
2019-01-31T22:34:54.783Z,92.79
2019-01-31T22:37:23.605Z,93.52
2019-01-31T22:39:52.374Z,94.14
2019-01-31T22:42:21.164Z,94.22
2019-01-31T22:44:50.012Z,93.39
2019-01-31T22:47:25.763Z,93.60
2019-01-31T22:49:47.734Z,93.27
2019-01-31T22:52:16.520Z,93.90
2019-01-31T22:54:45.320Z,93.30
2019-01-31T22:57:14.114Z,92.47
2019-01-31T22:59:42.959Z,92.49
2019-01-31T23:02:13.970Z,93.65
2019-01-31T23:04:42.934Z,92.59
2019-01-31T23:07:11.718Z,93.26
2019-01-31T23:09:40.511Z,92.92
2019-01-31T23:12:09.336Z,93.19
2019-01-31T23:14:38.165Z,92.79
2019-01-31T23:17:07.136Z,92.41
2019-01-31T23:19:35.941Z,92.35
2019-01-31T23:22:04.735Z,92.39
2019-01-31T23:24:33.603Z,92.53
2019-01-31T23:27:02.467Z,91.62
2019-01-31T23:29:31.216Z,91.41
2019-01-31T23:32:00.082Z,90.86
2019-01-31T23:34:28.992Z,91.36
2019-01-31T23:36:57.759Z,91.33
2019-01-31T23:39:26.554Z,91.33
2019-01-31T23:41:55.350Z,91.57
2019-01-31T23:44:24.206Z,92.26
2019-01-31T23:46:53.087Z,91.94
2019-01-31T23:49:21.873Z,91.26
2019-01-31T23:51:50.747Z,90.38
2019-01-31T23:54:19.558Z,90.86
2019-01-31T23:56:48.404Z,90.64
2019-01-31T23:59:17.177Z,90.73
